sensor_id;sensor_type;location;lat;lon;timestamp;P1;durP1;ratioP1;P2;durP2;ratioP2
61435;SDS011;47304;47.456;19.160;2023-03-01T00:02:11;19.00;;;10.50;;
61435;SDS011;47304;47.456;19.160;2023-03-01T00:04:38;19.40;;;9.70;;
61435;SDS011;47304;47.456;19.160;2023-03-01T00:07:04;18.90;;;10.10;;
61435;SDS011;47304;47.456;19.160;2023-03-01T00:09:31;20.00;;;10.60;;
61435;SDS011;47304;47.456;19.160;2023-03-01T00:11:58;19.90;;;10.60;;
61435;SDS011;47304;47.456;19.160;2023-03-01T00:14:24;18.30;;;9.00;;
61435;SDS011;47304;47.456;19.160;2023-03-01T00:16:51;16.60;;;9.00;;
61435;SDS011;47304;47.456;19.160;2023-03-01T00:19:18;18.60;;;9.70;;
61435;SDS011;47304;47.456;19.160;2023-03-01T00:21:45;17.80;;;9.80;;
61435;SDS011;47304;47.456;19.160;2023-03-01T00:24:12;17.30;;;9.20;;
61435;SDS011;47304;47.456;19.160;2023-03-01T00:26:39;17.20;;;9.10;;
61435;SDS011;47304;47.456;19.160;2023-03-01T00:29:05;16.60;;;8.80;;
61435;SDS011;47304;47.456;19.160;2023-03-01T00:31:32;16.90;;;8.60;;
61435;SDS011;47304;47.456;19.160;2023-03-01T00:34:00;16.30;;;8.90;;
61435;SDS011;47304;47.456;19.160;2023-03-01T00:36:30;19.20;;;10.20;;
61435;SDS011;47304;47.456;19.160;2023-03-01T00:38:58;21.30;;;9.30;;
61435;SDS011;47304;47.456;19.160;2023-03-01T00:41:25;16.20;;;8.40;;
61435;SDS011;47304;47.456;19.160;2023-03-01T00:43:52;19.90;;;9.40;;
61435;SDS011;47304;47.456;19.160;2023-03-01T00:46:20;17.50;;;9.30;;
61435;SDS011;47304;47.456;19.160;2023-03-01T00:48:47;18.70;;;9.50;;
61435;SDS011;47304;47.456;19.160;2023-03-01T00:51:15;17.30;;;9.90;;
61435;SDS011;47304;47.456;19.160;2023-03-01T00:53:44;18.90;;;9.80;;
61435;SDS011;47304;47.456;19.160;2023-03-01T00:56:12;17.00;;;9.50;;
61435;SDS011;47304;47.456;19.160;2023-03-01T00:58:40;16.50;;;8.70;;
61435;SDS011;47304;47.456;19.160;2023-03-01T01:01:11;18.50;;;9.20;;
61435;SDS011;47304;47.456;19.160;2023-03-01T01:03:40;19.30;;;8.90;;
61435;SDS011;47304;47.456;19.160;2023-03-01T01:06:12;16.20;;;8.90;;
61435;SDS011;47304;47.456;19.160;2023-03-01T01:08:39;16.60;;;9.40;;
61435;SDS011;47304;47.456;19.160;2023-03-01T01:11:08;17.70;;;9.00;;
61435;SDS011;47304;47.456;19.160;2023-03-01T01:13:35;16.60;;;8.20;;
61435;SDS011;47304;47.456;19.160;2023-03-01T01:16:03;18.60;;;9.60;;
61435;SDS011;47304;47.456;19.160;2023-03-01T01:18:30;15.80;;;8.60;;
61435;SDS011;47304;47.456;19.160;2023-03-01T01:20:56;15.10;;;7.80;;
61435;SDS011;47304;47.456;19.160;2023-03-01T01:23:23;15.30;;;8.20;;
61435;SDS011;47304;47.456;19.160;2023-03-01T01:25:49;15.50;;;7.60;;
61435;SDS011;47304;47.456;19.160;2023-03-01T01:28:16;19.20;;;9.00;;
61435;SDS011;47304;47.456;19.160;2023-03-01T01:30:42;17.30;;;8.60;;
61435;SDS011;47304;47.456;19.160;2023-03-01T01:33:09;15.40;;;8.00;;
61435;SDS011;47304;47.456;19.160;2023-03-01T01:35:35;16.70;;;8.70;;
61435;SDS011;47304;47.456;19.160;2023-03-01T01:38:02;19.20;;;9.50;;
61435;SDS011;47304;47.456;19.160;2023-03-01T01:40:28;17.30;;;8.80;;
61435;SDS011;47304;47.456;19.160;2023-03-01T01:42:55;15.60;;;8.40;;
61435;SDS011;47304;47.456;19.160;2023-03-01T01:47:48;15.70;;;9.10;;
61435;SDS011;47304;47.456;19.160;2023-03-01T01:50:15;16.60;;;9.20;;
61435;SDS011;47304;47.456;19.160;2023-03-01T01:52:44;16.70;;;8.70;;
61435;SDS011;47304;47.456;19.160;2023-03-01T01:55:15;17.50;;;8.60;;
61435;SDS011;47304;47.456;19.160;2023-03-01T01:57:53;17.40;;;9.20;;
61435;SDS011;47304;47.456;19.160;2023-03-01T02:03:11;15.60;;;8.20;;
61435;SDS011;47304;47.456;19.160;2023-03-01T02:08:37;15.70;;;8.20;;
61435;SDS011;47304;47.456;19.160;2023-03-01T02:11:06;16.80;;;7.90;;
61435;SDS011;47304;47.456;19.160;2023-03-01T02:13:35;16.80;;;8.20;;
61435;SDS011;47304;47.456;19.160;2023-03-01T02:16:03;13.90;;;8.00;;
61435;SDS011;47304;47.456;19.160;2023-03-01T02:18:34;16.10;;;7.80;;
61435;SDS011;47304;47.456;19.160;2023-03-01T02:23:48;15.30;;;7.40;;
61435;SDS011;47304;47.456;19.160;2023-03-01T02:28:42;16.80;;;8.50;;
61435;SDS011;47304;47.456;19.160;2023-03-01T02:31:10;15.10;;;8.10;;
61435;SDS011;47304;47.456;19.160;2023-03-01T02:33:42;17.00;;;7.70;;
61435;SDS011;47304;47.456;19.160;2023-03-01T02:36:11;15.80;;;8.40;;
61435;SDS011;47304;47.456;19.160;2023-03-01T02:38:42;14.20;;;7.30;;
61435;SDS011;47304;47.456;19.160;2023-03-01T02:41:09;13.20;;;6.70;;
61435;SDS011;47304;47.456;19.160;2023-03-01T02:43:39;16.80;;;8.40;;
61435;SDS011;47304;47.456;19.160;2023-03-01T02:46:07;13.50;;;7.20;;
61435;SDS011;47304;47.456;19.160;2023-03-01T02:48:44;14.60;;;7.40;;
61435;SDS011;47304;47.456;19.160;2023-03-01T02:51:25;14.60;;;7.20;;
61435;SDS011;47304;47.456;19.160;2023-03-01T02:57:06;14.10;;;7.40;;
61435;SDS011;47304;47.456;19.160;2023-03-01T02:59:34;14.90;;;7.00;;
61435;SDS011;47304;47.456;19.160;2023-03-01T03:02:03;15.30;;;7.90;;
61435;SDS011;47304;47.456;19.160;2023-03-01T03:04:29;16.10;;;7.80;;
61435;SDS011;47304;47.456;19.160;2023-03-01T03:06:56;14.70;;;7.60;;
61435;SDS011;47304;47.456;19.160;2023-03-01T03:09:22;17.10;;;8.70;;
61435;SDS011;47304;47.456;19.160;2023-03-01T03:11:49;15.50;;;7.60;;
61435;SDS011;47304;47.456;19.160;2023-03-01T03:14:16;17.00;;;7.70;;
61435;SDS011;47304;47.456;19.160;2023-03-01T03:16:44;13.30;;;7.40;;
61435;SDS011;47304;47.456;19.160;2023-03-01T03:19:12;14.80;;;7.70;;
61435;SDS011;47304;47.456;19.160;2023-03-01T03:21:39;14.40;;;7.60;;
61435;SDS011;47304;47.456;19.160;2023-03-01T03:24:05;15.90;;;8.30;;
61435;SDS011;47304;47.456;19.160;2023-03-01T03:26:32;16.10;;;8.40;;
61435;SDS011;47304;47.456;19.160;2023-03-01T03:28:59;14.10;;;7.30;;
61435;SDS011;47304;47.456;19.160;2023-03-01T03:31:25;15.00;;;8.30;;
61435;SDS011;47304;47.456;19.160;2023-03-01T03:33:52;14.30;;;7.60;;
61435;SDS011;47304;47.456;19.160;2023-03-01T03:36:19;17.40;;;7.70;;
61435;SDS011;47304;47.456;19.160;2023-03-01T03:38:48;15.70;;;7.80;;
61435;SDS011;47304;47.456;19.160;2023-03-01T03:41:15;14.90;;;8.50;;
61435;SDS011;47304;47.456;19.160;2023-03-01T03:43:42;16.30;;;8.10;;
61435;SDS011;47304;47.456;19.160;2023-03-01T03:46:10;17.30;;;8.90;;
61435;SDS011;47304;47.456;19.160;2023-03-01T03:48:40;16.20;;;8.50;;
61435;SDS011;47304;47.456;19.160;2023-03-01T03:51:11;17.00;;;8.70;;
61435;SDS011;47304;47.456;19.160;2023-03-01T03:53:42;16.80;;;8.10;;
61435;SDS011;47304;47.456;19.160;2023-03-01T03:56:10;15.90;;;7.90;;
61435;SDS011;47304;47.456;19.160;2023-03-01T03:58:37;15.70;;;9.20;;
61435;SDS011;47304;47.456;19.160;2023-03-01T04:01:04;16.40;;;8.00;;
61435;SDS011;47304;47.456;19.160;2023-03-01T04:03:30;16.10;;;7.70;;
61435;SDS011;47304;47.456;19.160;2023-03-01T04:05:58;15.90;;;8.10;;
61435;SDS011;47304;47.456;19.160;2023-03-01T04:08:26;17.50;;;9.00;;
61435;SDS011;47304;47.456;19.160;2023-03-01T04:10:58;15.40;;;8.50;;
61435;SDS011;47304;47.456;19.160;2023-03-01T04:13:29;15.20;;;7.90;;
61435;SDS011;47304;47.456;19.160;2023-03-01T04:15:55;15.50;;;8.30;;
61435;SDS011;47304;47.456;19.160;2023-03-01T04:18:22;15.70;;;7.90;;
61435;SDS011;47304;47.456;19.160;2023-03-01T04:20:50;15.80;;;8.10;;
61435;SDS011;47304;47.456;19.160;2023-03-01T04:23:17;16.70;;;8.10;;
61435;SDS011;47304;47.456;19.160;2023-03-01T04:25:53;16.30;;;8.10;;
61435;SDS011;47304;47.456;19.160;2023-03-01T04:28:27;16.50;;;8.20;;
61435;SDS011;47304;47.456;19.160;2023-03-01T04:30:54;16.60;;;8.40;;
61435;SDS011;47304;47.456;19.160;2023-03-01T04:33:22;16.40;;;8.30;;
61435;SDS011;47304;47.456;19.160;2023-03-01T04:35:50;15.10;;;8.30;;
61435;SDS011;47304;47.456;19.160;2023-03-01T04:38:18;15.80;;;8.80;;
61435;SDS011;47304;47.456;19.160;2023-03-01T04:40:45;18.00;;;8.90;;
61435;SDS011;47304;47.456;19.160;2023-03-01T04:43:12;16.90;;;8.50;;
61435;SDS011;47304;47.456;19.160;2023-03-01T04:45:38;16.40;;;9.30;;
61435;SDS011;47304;47.456;19.160;2023-03-01T04:48:05;21.70;;;8.90;;
61435;SDS011;47304;47.456;19.160;2023-03-01T04:50:32;16.10;;;7.70;;
61435;SDS011;47304;47.456;19.160;2023-03-01T04:52:59;14.90;;;7.70;;
61435;SDS011;47304;47.456;19.160;2023-03-01T04:55:26;16.20;;;7.80;;
61435;SDS011;47304;47.456;19.160;2023-03-01T04:57:54;14.30;;;7.50;;
61435;SDS011;47304;47.456;19.160;2023-03-01T05:00:21;15.70;;;7.60;;
61435;SDS011;47304;47.456;19.160;2023-03-01T05:02:49;18.00;;;8.20;;
61435;SDS011;47304;47.456;19.160;2023-03-01T05:05:16;14.50;;;7.10;;
61435;SDS011;47304;47.456;19.160;2023-03-01T05:07:42;16.50;;;7.90;;
61435;SDS011;47304;47.456;19.160;2023-03-01T05:10:09;15.20;;;7.70;;
61435;SDS011;47304;47.456;19.160;2023-03-01T05:12:36;13.40;;;7.00;;
61435;SDS011;47304;47.456;19.160;2023-03-01T05:15:03;16.50;;;8.70;;
61435;SDS011;47304;47.456;19.160;2023-03-01T05:17:31;16.70;;;8.30;;
61435;SDS011;47304;47.456;19.160;2023-03-01T05:19:57;14.30;;;8.00;;
61435;SDS011;47304;47.456;19.160;2023-03-01T05:22:24;13.50;;;7.20;;
61435;SDS011;47304;47.456;19.160;2023-03-01T05:24:50;16.30;;;8.30;;
61435;SDS011;47304;47.456;19.160;2023-03-01T05:27:17;15.10;;;8.00;;
61435;SDS011;47304;47.456;19.160;2023-03-01T05:29:43;14.00;;;7.30;;
61435;SDS011;47304;47.456;19.160;2023-03-01T05:32:09;16.70;;;7.80;;
61435;SDS011;47304;47.456;19.160;2023-03-01T05:34:36;15.50;;;7.30;;
61435;SDS011;47304;47.456;19.160;2023-03-01T05:37:03;12.60;;;6.80;;
61435;SDS011;47304;47.456;19.160;2023-03-01T05:39:29;14.80;;;7.10;;
61435;SDS011;47304;47.456;19.160;2023-03-01T05:41:57;16.50;;;7.40;;
61435;SDS011;47304;47.456;19.160;2023-03-01T05:44:27;16.70;;;7.60;;
61435;SDS011;47304;47.456;19.160;2023-03-01T05:46:54;15.00;;;7.80;;
61435;SDS011;47304;47.456;19.160;2023-03-01T05:49:21;15.70;;;7.70;;
61435;SDS011;47304;47.456;19.160;2023-03-01T05:51:49;15.70;;;8.40;;
61435;SDS011;47304;47.456;19.160;2023-03-01T05:54:17;15.90;;;8.50;;
61435;SDS011;47304;47.456;19.160;2023-03-01T05:56:45;16.90;;;7.70;;
61435;SDS011;47304;47.456;19.160;2023-03-01T05:59:11;16.10;;;8.30;;
61435;SDS011;47304;47.456;19.160;2023-03-01T06:01:38;18.70;;;9.10;;
61435;SDS011;47304;47.456;19.160;2023-03-01T06:04:04;16.40;;;7.40;;
61435;SDS011;47304;47.456;19.160;2023-03-01T06:06:35;15.20;;;7.50;;
61435;SDS011;47304;47.456;19.160;2023-03-01T06:09:03;15.00;;;7.20;;
61435;SDS011;47304;47.456;19.160;2023-03-01T06:11:30;15.70;;;7.90;;
61435;SDS011;47304;47.456;19.160;2023-03-01T06:13:57;16.70;;;7.80;;
61435;SDS011;47304;47.456;19.160;2023-03-01T06:16:23;16.10;;;8.30;;
61435;SDS011;47304;47.456;19.160;2023-03-01T06:18:50;16.90;;;8.40;;
61435;SDS011;47304;47.456;19.160;2023-03-01T06:21:16;14.90;;;7.60;;
61435;SDS011;47304;47.456;19.160;2023-03-01T06:23:43;17.40;;;8.20;;
61435;SDS011;47304;47.456;19.160;2023-03-01T06:26:09;14.90;;;8.00;;
61435;SDS011;47304;47.456;19.160;2023-03-01T06:28:36;15.70;;;7.60;;
61435;SDS011;47304;47.456;19.160;2023-03-01T06:31:03;15.40;;;8.10;;
61435;SDS011;47304;47.456;19.160;2023-03-01T06:33:30;20.10;;;9.80;;
61435;SDS011;47304;47.456;19.160;2023-03-01T06:35:56;20.40;;;10.00;;
61435;SDS011;47304;47.456;19.160;2023-03-01T06:38:23;20.80;;;9.90;;
61435;SDS011;47304;47.456;19.160;2023-03-01T06:40:54;20.50;;;10.70;;
61435;SDS011;47304;47.456;19.160;2023-03-01T06:43:21;17.70;;;9.20;;
61435;SDS011;47304;47.456;19.160;2023-03-01T06:45:49;16.50;;;8.50;;
61435;SDS011;47304;47.456;19.160;2023-03-01T06:48:16;16.90;;;8.40;;
61435;SDS011;47304;47.456;19.160;2023-03-01T06:50:42;16.80;;;7.90;;
61435;SDS011;47304;47.456;19.160;2023-03-01T06:53:09;17.20;;;8.50;;
61435;SDS011;47304;47.456;19.160;2023-03-01T06:55:35;14.40;;;7.50;;
61435;SDS011;47304;47.456;19.160;2023-03-01T06:58:02;17.70;;;7.80;;
61435;SDS011;47304;47.456;19.160;2023-03-01T07:00:29;18.40;;;8.40;;
61435;SDS011;47304;47.456;19.160;2023-03-01T07:03:00;19.80;;;9.60;;
61435;SDS011;47304;47.456;19.160;2023-03-01T07:05:28;16.00;;;7.90;;
61435;SDS011;47304;47.456;19.160;2023-03-01T07:07:55;14.80;;;7.10;;
61435;SDS011;47304;47.456;19.160;2023-03-01T07:10:22;17.30;;;8.50;;
61435;SDS011;47304;47.456;19.160;2023-03-01T07:12:49;14.60;;;7.80;;
61435;SDS011;47304;47.456;19.160;2023-03-01T07:15:15;14.80;;;7.80;;
61435;SDS011;47304;47.456;19.160;2023-03-01T07:17:42;17.30;;;8.20;;
61435;SDS011;47304;47.456;19.160;2023-03-01T07:20:08;15.30;;;7.80;;
61435;SDS011;47304;47.456;19.160;2023-03-01T07:22:35;15.00;;;7.40;;
61435;SDS011;47304;47.456;19.160;2023-03-01T07:25:02;16.10;;;7.20;;
61435;SDS011;47304;47.456;19.160;2023-03-01T07:27:29;15.60;;;8.10;;
61435;SDS011;47304;47.456;19.160;2023-03-01T07:29:55;14.00;;;7.80;;
61435;SDS011;47304;47.456;19.160;2023-03-01T07:32:22;16.00;;;7.90;;
61435;SDS011;47304;47.456;19.160;2023-03-01T07:34:50;16.40;;;8.00;;
61435;SDS011;47304;47.456;19.160;2023-03-01T07:37:17;15.10;;;8.00;;
61435;SDS011;47304;47.456;19.160;2023-03-01T07:39:43;15.90;;;7.80;;
61435;SDS011;47304;47.456;19.160;2023-03-01T07:42:10;15.30;;;7.70;;
61435;SDS011;47304;47.456;19.160;2023-03-01T07:44:36;15.30;;;7.90;;
61435;SDS011;47304;47.456;19.160;2023-03-01T07:47:03;17.10;;;9.10;;
61435;SDS011;47304;47.456;19.160;2023-03-01T07:49:30;16.20;;;8.40;;
61435;SDS011;47304;47.456;19.160;2023-03-01T07:51:57;14.90;;;8.10;;
61435;SDS011;47304;47.456;19.160;2023-03-01T07:54:23;17.50;;;9.10;;
61435;SDS011;47304;47.456;19.160;2023-03-01T07:56:50;22.20;;;10.50;;
61435;SDS011;47304;47.456;19.160;2023-03-01T07:59:17;21.80;;;9.00;;
61435;SDS011;47304;47.456;19.160;2023-03-01T08:01:43;19.20;;;9.50;;
61435;SDS011;47304;47.456;19.160;2023-03-01T08:04:10;16.30;;;7.90;;
61435;SDS011;47304;47.456;19.160;2023-03-01T08:06:36;17.00;;;9.00;;
61435;SDS011;47304;47.456;19.160;2023-03-01T08:09:03;16.80;;;8.90;;
61435;SDS011;47304;47.456;19.160;2023-03-01T08:11:30;16.50;;;8.40;;
61435;SDS011;47304;47.456;19.160;2023-03-01T08:13:56;14.60;;;8.00;;
61435;SDS011;47304;47.456;19.160;2023-03-01T08:16:23;15.90;;;8.40;;
61435;SDS011;47304;47.456;19.160;2023-03-01T08:18:50;16.10;;;8.10;;
61435;SDS011;47304;47.456;19.160;2023-03-01T08:21:17;15.60;;;8.80;;
61435;SDS011;47304;47.456;19.160;2023-03-01T08:23:44;16.40;;;7.40;;
61435;SDS011;47304;47.456;19.160;2023-03-01T08:26:19;13.70;;;7.10;;
61435;SDS011;47304;47.456;19.160;2023-03-01T08:28:47;13.50;;;7.50;;
61435;SDS011;47304;47.456;19.160;2023-03-01T08:33:47;13.20;;;7.50;;
61435;SDS011;47304;47.456;19.160;2023-03-01T08:36:15;13.10;;;7.20;;
61435;SDS011;47304;47.456;19.160;2023-03-01T08:38:41;12.70;;;6.90;;
61435;SDS011;47304;47.456;19.160;2023-03-01T08:41:08;15.10;;;7.80;;
61435;SDS011;47304;47.456;19.160;2023-03-01T08:43:35;12.40;;;7.10;;
61435;SDS011;47304;47.456;19.160;2023-03-01T08:46:01;12.40;;;6.70;;
61435;SDS011;47304;47.456;19.160;2023-03-01T08:48:28;13.80;;;7.60;;
61435;SDS011;47304;47.456;19.160;2023-03-01T08:50:55;14.00;;;7.60;;
61435;SDS011;47304;47.456;19.160;2023-03-01T08:53:22;14.60;;;7.20;;
61435;SDS011;47304;47.456;19.160;2023-03-01T08:55:49;13.00;;;7.10;;
61435;SDS011;47304;47.456;19.160;2023-03-01T08:58:16;13.80;;;7.10;;
61435;SDS011;47304;47.456;19.160;2023-03-01T09:00:42;14.70;;;6.70;;
61435;SDS011;47304;47.456;19.160;2023-03-01T09:03:09;13.00;;;7.40;;
61435;SDS011;47304;47.456;19.160;2023-03-01T09:05:35;13.20;;;7.20;;
61435;SDS011;47304;47.456;19.160;2023-03-01T09:08:02;13.60;;;7.10;;
61435;SDS011;47304;47.456;19.160;2023-03-01T09:10:28;14.20;;;8.00;;
61435;SDS011;47304;47.456;19.160;2023-03-01T09:12:56;14.90;;;7.80;;
61435;SDS011;47304;47.456;19.160;2023-03-01T09:15:22;14.30;;;8.50;;
61435;SDS011;47304;47.456;19.160;2023-03-01T09:17:49;27.00;;;15.10;;
61435;SDS011;47304;47.456;19.160;2023-03-01T09:20:15;15.10;;;8.20;;
61435;SDS011;47304;47.456;19.160;2023-03-01T09:22:42;13.90;;;8.40;;
61435;SDS011;47304;47.456;19.160;2023-03-01T09:25:09;12.60;;;7.50;;
61435;SDS011;47304;47.456;19.160;2023-03-01T09:27:36;14.00;;;8.00;;
61435;SDS011;47304;47.456;19.160;2023-03-01T09:30:03;14.30;;;7.80;;
61435;SDS011;47304;47.456;19.160;2023-03-01T09:32:30;12.90;;;7.80;;
61435;SDS011;47304;47.456;19.160;2023-03-01T09:34:57;15.30;;;8.50;;
61435;SDS011;47304;47.456;19.160;2023-03-01T09:37:23;12.90;;;7.60;;
61435;SDS011;47304;47.456;19.160;2023-03-01T09:39:50;10.90;;;7.20;;
61435;SDS011;47304;47.456;19.160;2023-03-01T09:42:16;11.30;;;7.10;;
61435;SDS011;47304;47.456;19.160;2023-03-01T09:44:51;12.60;;;7.90;;
61435;SDS011;47304;47.456;19.160;2023-03-01T09:47:29;10.00;;;6.60;;
61435;SDS011;47304;47.456;19.160;2023-03-01T09:50:15;13.70;;;10.00;;
61435;SDS011;47304;47.456;19.160;2023-03-01T09:52:50;10.30;;;6.40;;
61435;SDS011;47304;47.456;19.160;2023-03-01T09:55:30;10.60;;;7.20;;
61435;SDS011;47304;47.456;19.160;2023-03-01T10:00:42;11.00;;;6.80;;
61435;SDS011;47304;47.456;19.160;2023-03-01T10:03:17;9.70;;;6.20;;
61435;SDS011;47304;47.456;19.160;2023-03-01T10:11:12;10.40;;;6.10;;
61435;SDS011;47304;47.456;19.160;2023-03-01T10:13:54;9.80;;;6.30;;
61435;SDS011;47304;47.456;19.160;2023-03-01T10:16:28;10.50;;;6.20;;
61435;SDS011;47304;47.456;19.160;2023-03-01T10:19:00;12.20;;;6.20;;
61435;SDS011;47304;47.456;19.160;2023-03-01T10:21:29;10.30;;;5.80;;
61435;SDS011;47304;47.456;19.160;2023-03-01T10:24:01;9.60;;;5.60;;
61435;SDS011;47304;47.456;19.160;2023-03-01T10:26:43;7.90;;;5.70;;
61435;SDS011;47304;47.456;19.160;2023-03-01T10:29:14;9.10;;;6.10;;
61435;SDS011;47304;47.456;19.160;2023-03-01T10:31:43;8.60;;;5.80;;
61435;SDS011;47304;47.456;19.160;2023-03-01T10:34:19;8.40;;;5.80;;
61435;SDS011;47304;47.456;19.160;2023-03-01T10:36:48;8.80;;;6.10;;
61435;SDS011;47304;47.456;19.160;2023-03-01T10:39:18;10.50;;;6.20;;
61435;SDS011;47304;47.456;19.160;2023-03-01T10:41:53;9.90;;;5.70;;
61435;SDS011;47304;47.456;19.160;2023-03-01T10:44:39;8.50;;;5.60;;
61435;SDS011;47304;47.456;19.160;2023-03-01T10:47:17;8.90;;;5.40;;
61435;SDS011;47304;47.456;19.160;2023-03-01T10:49:56;9.00;;;5.70;;
61435;SDS011;47304;47.456;19.160;2023-03-01T10:54:59;8.90;;;5.90;;
61435;SDS011;47304;47.456;19.160;2023-03-01T10:57:29;10.20;;;6.40;;
61435;SDS011;47304;47.456;19.160;2023-03-01T11:02:42;9.90;;;6.20;;
61435;SDS011;47304;47.456;19.160;2023-03-01T11:07:55;9.80;;;6.10;;
61435;SDS011;47304;47.456;19.160;2023-03-01T11:10:30;9.20;;;5.70;;
61435;SDS011;47304;47.456;19.160;2023-03-01T11:13:06;8.90;;;5.60;;
61435;SDS011;47304;47.456;19.160;2023-03-01T11:15:33;8.80;;;6.20;;
61435;SDS011;47304;47.456;19.160;2023-03-01T11:17:59;10.00;;;6.60;;
61435;SDS011;47304;47.456;19.160;2023-03-01T11:20:39;8.90;;;6.20;;
61435;SDS011;47304;47.456;19.160;2023-03-01T11:23:10;8.50;;;5.20;;
61435;SDS011;47304;47.456;19.160;2023-03-01T11:25:40;7.90;;;5.20;;
61435;SDS011;47304;47.456;19.160;2023-03-01T11:28:19;9.40;;;5.40;;
61435;SDS011;47304;47.456;19.160;2023-03-01T11:33:43;8.90;;;5.50;;
61435;SDS011;47304;47.456;19.160;2023-03-01T11:39:03;8.50;;;5.30;;
61435;SDS011;47304;47.456;19.160;2023-03-01T11:41:48;9.60;;;5.50;;
61435;SDS011;47304;47.456;19.160;2023-03-01T11:44:19;8.00;;;5.10;;
61435;SDS011;47304;47.456;19.160;2023-03-01T11:47:05;12.30;;;6.00;;
61435;SDS011;47304;47.456;19.160;2023-03-01T11:52:59;9.50;;;5.80;;
61435;SDS011;47304;47.456;19.160;2023-03-01T12:00:54;9.70;;;5.70;;
61435;SDS011;47304;47.456;19.160;2023-03-01T12:06:20;8.70;;;4.80;;
61435;SDS011;47304;47.456;19.160;2023-03-01T12:17:19;9.60;;;5.00;;
61435;SDS011;47304;47.456;19.160;2023-03-01T12:26:11;10.10;;;5.70;;
61435;SDS011;47304;47.456;19.160;2023-03-01T12:29:13;14.10;;;5.50;;
61435;SDS011;47304;47.456;19.160;2023-03-01T12:31:57;9.10;;;5.10;;
61435;SDS011;47304;47.456;19.160;2023-03-01T12:37:36;8.30;;;4.60;;
61435;SDS011;47304;47.456;19.160;2023-03-01T12:46:25;13.40;;;6.40;;
61435;SDS011;47304;47.456;19.160;2023-03-01T12:51:37;9.30;;;4.90;;
61435;SDS011;47304;47.456;19.160;2023-03-01T12:54:16;9.40;;;4.50;;
61435;SDS011;47304;47.456;19.160;2023-03-01T12:56:52;11.00;;;4.60;;
61435;SDS011;47304;47.456;19.160;2023-03-01T13:02:45;8.50;;;4.70;;
61435;SDS011;47304;47.456;19.160;2023-03-01T13:10:56;8.00;;;3.60;;
61435;SDS011;47304;47.456;19.160;2023-03-01T13:13:27;7.90;;;3.80;;
61435;SDS011;47304;47.456;19.160;2023-03-01T13:15:54;8.30;;;4.50;;
61435;SDS011;47304;47.456;19.160;2023-03-01T13:20:49;8.20;;;4.00;;
61435;SDS011;47304;47.456;19.160;2023-03-01T13:31:04;8.70;;;3.50;;
61435;SDS011;47304;47.456;19.160;2023-03-01T13:35:58;9.10;;;4.20;;
61435;SDS011;47304;47.456;19.160;2023-03-01T13:38:46;9.40;;;3.80;;
61435;SDS011;47304;47.456;19.160;2023-03-01T13:46:47;8.00;;;3.90;;
61435;SDS011;47304;47.456;19.160;2023-03-01T13:49:16;10.50;;;4.70;;
61435;SDS011;47304;47.456;19.160;2023-03-01T13:51:46;13.10;;;4.20;;
61435;SDS011;47304;47.456;19.160;2023-03-01T13:54:15;7.90;;;3.80;;
61435;SDS011;47304;47.456;19.160;2023-03-01T13:56:47;7.70;;;3.90;;
61435;SDS011;47304;47.456;19.160;2023-03-01T13:59:18;9.00;;;4.20;;
61435;SDS011;47304;47.456;19.160;2023-03-01T14:01:59;7.80;;;3.70;;
61435;SDS011;47304;47.456;19.160;2023-03-01T14:04:31;11.50;;;5.00;;
61435;SDS011;47304;47.456;19.160;2023-03-01T14:07:08;8.40;;;3.50;;
61435;SDS011;47304;47.456;19.160;2023-03-01T14:09:54;10.10;;;4.40;;
61435;SDS011;47304;47.456;19.160;2023-03-01T14:12:31;7.90;;;4.00;;
61435;SDS011;47304;47.456;19.160;2023-03-01T14:18:08;8.30;;;4.00;;
61435;SDS011;47304;47.456;19.160;2023-03-01T14:20:56;8.40;;;4.00;;
61435;SDS011;47304;47.456;19.160;2023-03-01T14:23:23;8.70;;;3.60;;
61435;SDS011;47304;47.456;19.160;2023-03-01T14:25:54;8.80;;;3.40;;
61435;SDS011;47304;47.456;19.160;2023-03-01T14:28:27;8.60;;;3.90;;
61435;SDS011;47304;47.456;19.160;2023-03-01T14:30:57;8.20;;;3.70;;
61435;SDS011;47304;47.456;19.160;2023-03-01T14:33:26;9.10;;;4.00;;
61435;SDS011;47304;47.456;19.160;2023-03-01T14:36:06;9.60;;;4.10;;
61435;SDS011;47304;47.456;19.160;2023-03-01T14:38:38;9.60;;;4.40;;
61435;SDS011;47304;47.456;19.160;2023-03-01T14:43:39;7.60;;;4.20;;
61435;SDS011;47304;47.456;19.160;2023-03-01T14:49:01;8.50;;;4.20;;
61435;SDS011;47304;47.456;19.160;2023-03-01T14:51:30;8.30;;;4.10;;
61435;SDS011;47304;47.456;19.160;2023-03-01T14:54:01;8.90;;;3.60;;
61435;SDS011;47304;47.456;19.160;2023-03-01T14:56:27;9.10;;;3.60;;
61435;SDS011;47304;47.456;19.160;2023-03-01T14:59:09;8.30;;;4.00;;
61435;SDS011;47304;47.456;19.160;2023-03-01T15:01:37;7.80;;;3.50;;
61435;SDS011;47304;47.456;19.160;2023-03-01T15:04:04;8.40;;;3.70;;
61435;SDS011;47304;47.456;19.160;2023-03-01T15:06:31;7.80;;;3.80;;
61435;SDS011;47304;47.456;19.160;2023-03-01T15:08:58;9.50;;;3.70;;
61435;SDS011;47304;47.456;19.160;2023-03-01T15:11:29;11.10;;;4.20;;
61435;SDS011;47304;47.456;19.160;2023-03-01T15:13:58;8.50;;;3.90;;
61435;SDS011;47304;47.456;19.160;2023-03-01T15:21:25;8.70;;;4.10;;
61435;SDS011;47304;47.456;19.160;2023-03-01T15:23:54;11.40;;;4.00;;
61435;SDS011;47304;47.456;19.160;2023-03-01T15:26:32;8.80;;;3.90;;
61435;SDS011;47304;47.456;19.160;2023-03-01T15:29:03;8.00;;;3.70;;
61435;SDS011;47304;47.456;19.160;2023-03-01T15:31:34;8.20;;;3.70;;
61435;SDS011;47304;47.456;19.160;2023-03-01T15:36:50;7.50;;;3.80;;
61435;SDS011;47304;47.456;19.160;2023-03-01T15:41:59;7.10;;;3.40;;
61435;SDS011;47304;47.456;19.160;2023-03-01T15:44:27;8.40;;;3.90;;
61435;SDS011;47304;47.456;19.160;2023-03-01T15:47:23;9.70;;;3.80;;
61435;SDS011;47304;47.456;19.160;2023-03-01T15:49:55;9.80;;;3.80;;
61435;SDS011;47304;47.456;19.160;2023-03-01T15:52:25;10.30;;;3.60;;
61435;SDS011;47304;47.456;19.160;2023-03-01T15:55:04;8.60;;;3.70;;
61435;SDS011;47304;47.456;19.160;2023-03-01T15:57:40;8.30;;;3.70;;
61435;SDS011;47304;47.456;19.160;2023-03-01T16:00:09;10.20;;;4.00;;
61435;SDS011;47304;47.456;19.160;2023-03-01T16:02:37;8.30;;;4.10;;
61435;SDS011;47304;47.456;19.160;2023-03-01T16:05:04;8.70;;;4.00;;
61435;SDS011;47304;47.456;19.160;2023-03-01T16:07:31;8.80;;;4.00;;
61435;SDS011;47304;47.456;19.160;2023-03-01T16:09:57;10.80;;;4.10;;
61435;SDS011;47304;47.456;19.160;2023-03-01T16:12:24;10.00;;;4.10;;
61435;SDS011;47304;47.456;19.160;2023-03-01T16:14:50;9.20;;;3.40;;
61435;SDS011;47304;47.456;19.160;2023-03-01T16:17:17;7.40;;;3.40;;
61435;SDS011;47304;47.456;19.160;2023-03-01T16:19:43;9.10;;;3.60;;
61435;SDS011;47304;47.456;19.160;2023-03-01T16:22:10;9.80;;;3.50;;
61435;SDS011;47304;47.456;19.160;2023-03-01T16:24:36;9.10;;;3.60;;
61435;SDS011;47304;47.456;19.160;2023-03-01T16:27:03;9.40;;;3.70;;
61435;SDS011;47304;47.456;19.160;2023-03-01T16:29:29;10.10;;;4.70;;
61435;SDS011;47304;47.456;19.160;2023-03-01T16:31:56;8.80;;;4.10;;
61435;SDS011;47304;47.456;19.160;2023-03-01T16:34:23;8.60;;;5.00;;
61435;SDS011;47304;47.456;19.160;2023-03-01T16:36:49;16.10;;;6.50;;
61435;SDS011;47304;47.456;19.160;2023-03-01T16:39:16;26.70;;;13.40;;
61435;SDS011;47304;47.456;19.160;2023-03-01T16:41:42;39.30;;;20.60;;